Time;durP1;ratioP1;P1;durP2;ratioP2;P2;SDS_P1;SDS_P2;PMS_P1;PMS_P2;Temp;Humidity;BMP_temperature;BMP_pressure;BME280_temperature;BME280_humidity;BME280_pressure;Samples;Min_cycle;Max_cycle;Signal;HPM_P1;HPM_P2
2023/01/31 00:01:15;;;;;;;38.80;20.33;;;;;;;;;;4993400;28;20045;-72
2023/01/31 00:03:44;;;;;;;40.95;20.40;;;;;;;;;;4993264;28;20088;-72
2023/01/31 00:06:10;;;;;;;37.53;20.27;;;;;;;;;;4993587;28;20018;-72
2023/01/31 00:08:36;;;;;;;36.17;18.30;;;;;;;;;;4993597;28;20408;-73
2023/01/31 00:11:01;;;;;;;34.90;18.13;;;;;;;;;;4993469;28;20096;-72
2023/01/31 00:13:27;;;;;;;34.78;19.05;;;;;;;;;;4993333;28;20040;-72
2023/01/31 00:15:55;;;;;;;37.83;18.50;;;;;;;;;;4991951;28;20022;-71
2023/01/31 00:18:21;;;;;;;37.92;18.50;;;;;;;;;;4992541;28;20503;-71
2023/01/31 00:20:47;;;;;;;35.45;18.63;;;;;;;;;;4993134;28;20057;-71
2023/01/31 00:23:13;;;;;;;36.63;19.23;;;;;;;;;;4992049;28;20057;-72
2023/01/31 00:25:38;;;;;;;39.08;18.95;;;;;;;;;;4991590;28;20034;-72
2023/01/31 00:28:04;;;;;;;34.92;19.05;;;;;;;;;;4992419;28;20034;-71
2023/01/31 00:30:29;;;;;;;39.00;20.17;;;;;;;;;;4991264;28;20029;-71
2023/01/31 00:32:55;;;;;;;40.45;19.00;;;;;;;;;;4989952;28;20069;-72
2023/01/31 00:35:23;;;;;;;42.90;20.95;;;;;;;;;;4990829;28;20042;-72
2023/01/31 00:37:49;;;;;;;49.53;26.45;;;;;;;;;;4992846;28;20030;-72
2023/01/31 00:40:15;;;;;;;32.10;17.08;;;;;;;;;;4991680;28;20033;-72
2023/01/31 00:42:44;;;;;;;28.35;15.52;;;;;;;;;;4993345;28;20034;-71
2023/01/31 00:45:10;;;;;;;30.58;16.98;;;;;;;;;;4991865;28;20386;-72
2023/01/31 00:47:36;;;;;;;30.85;15.93;;;;;;;;;;4992510;28;20030;-72
2023/01/31 00:50:02;;;;;;;31.55;16.05;;;;;;;;;;4991356;28;20025;-72
2023/01/31 00:52:28;;;;;;;30.27;15.07;;;;;;;;;;4992933;28;20113;-72
2023/01/31 00:54:55;;;;;;;29.05;14.32;;;;;;;;;;4991231;28;20033;-72
2023/01/31 00:57:21;;;;;;;29.45;14.98;;;;;;;;;;4992714;28;20447;-72
2023/01/31 00:59:47;;;;;;;30.55;14.95;;;;;;;;;;4991335;28;20062;-72
2023/01/31 01:02:13;;;;;;;27.67;14.82;;;;;;;;;;4990873;28;20045;-72
2023/01/31 01:04:39;;;;;;;28.17;14.98;;;;;;;;;;4991015;28;20034;-72
2023/01/31 01:07:04;;;;;;;33.15;16.00;;;;;;;;;;5023781;28;20542;-72
2023/01/31 01:09:32;;;;;;;27.20;14.65;;;;;;;;;;4991156;28;20357;-72
2023/01/31 01:11:58;;;;;;;28.25;15.15;;;;;;;;;;4990978;28;20038;-72
2023/01/31 01:14:24;;;;;;;29.95;16.10;;;;;;;;;;4990593;28;20124;-72
2023/01/31 01:16:49;;;;;;;29.52;15.27;;;;;;;;;;4990743;28;20376;-72
2023/01/31 01:19:18;;;;;;;30.95;15.80;;;;;;;;;;4990986;28;20437;-72
2023/01/31 01:21:46;;;;;;;29.10;14.98;;;;;;;;;;4992250;28;20042;-72
2023/01/31 01:24:15;;;;;;;28.23;14.75;;;;;;;;;;4992069;28;20546;-72
2023/01/31 01:26:41;;;;;;;32.42;16.85;;;;;;;;;;4990875;28;20036;-72
2023/01/31 01:29:07;;;;;;;36.70;20.13;;;;;;;;;;4991071;28;20026;-72
2023/01/31 01:31:32;;;;;;;43.75;22.52;;;;;;;;;;4990732;28;20526;-71
2023/01/31 01:34:04;;;;;;;41.22;22.50;;;;;;;;;;4991665;28;20058;-72
2023/01/31 01:36:32;;;;;;;49.00;28.13;;;;;;;;;;4990937;28;20480;-72
2023/01/31 01:38:58;;;;;;;39.90;22.20;;;;;;;;;;4990975;28;20038;-72
2023/01/31 01:41:25;;;;;;;43.65;20.40;;;;;;;;;;4992051;28;20456;-72
2023/01/31 01:43:52;;;;;;;38.08;20.63;;;;;;;;;;4991231;28;20022;-72
2023/01/31 01:46:34;;;;;;;41.05;21.60;;;;;;;;;;4991229;28;20034;-72
2023/01/31 01:49:31;;;;;;;48.95;23.48;;;;;;;;;;4992417;28;20074;-72
2023/01/31 01:52:01;;;;;;;44.40;23.63;;;;;;;;;;4991275;28;20064;-72
2023/01/31 01:54:35;;;;;;;50.25;26.92;;;;;;;;;;4992677;28;20381;-72
2023/01/31 01:57:05;;;;;;;50.28;26.40;;;;;;;;;;4994341;28;20574;-72
2023/01/31 01:59:44;;;;;;;59.88;31.55;;;;;;;;;;4994569;28;20041;-72
2023/01/31 02:02:12;;;;;;;52.03;27.60;;;;;;;;;;4994326;28;20125;-72
2023/01/31 02:04:41;;;;;;;48.10;23.73;;;;;;;;;;4995653;28;20312;-72
2023/01/31 02:07:08;;;;;;;44.28;22.75;;;;;;;;;;4995942;28;20046;-72
2023/01/31 02:09:43;;;;;;;40.65;21.10;;;;;;;;;;4995747;28;20026;-72
2023/01/31 02:12:11;;;;;;;42.28;21.73;;;;;;;;;;4994429;28;20026;-72
2023/01/31 02:14:39;;;;;;;39.10;21.85;;;;;;;;;;4993864;28;20038;-73
2023/01/31 02:17:05;;;;;;;39.78;21.63;;;;;;;;;;4994147;28;20488;-72
2023/01/31 02:19:48;;;;;;;46.28;21.90;;;;;;;;;;4994387;28;20500;-73
2023/01/31 02:22:23;;;;;;;36.37;20.37;;;;;;;;;;4978036;28;20519;-72
2023/01/31 02:25:21;;;;;;;40.72;20.58;;;;;;;;;;4994053;28;20115;-71
2023/01/31 02:27:59;;;;;;;41.30;20.55;;;;;;;;;;4989755;28;20500;-73
2023/01/31 02:30:44;;;;;;;44.80;21.60;;;;;;;;;;4993889;28;20100;-72
2023/01/31 02:33:18;;;;;;;45.22;20.60;;;;;;;;;;4986869;28;20128;-72
2023/01/31 02:35:56;;;;;;;43.75;22.23;;;;;;;;;;4992804;28;20493;-72
2023/01/31 02:38:55;;;;;;;40.67;20.55;;;;;;;;;;4993551;28;20037;-72
2023/01/31 02:41:26;;;;;;;42.97;20.02;;;;;;;;;;4995773;28;20532;-71
2023/01/31 02:46:50;;;;;;;37.35;21.70;;;;;;;;;;4995065;28;20038;-72
2023/01/31 02:49:34;;;;;;;39.53;21.17;;;;;;;;;;4993913;28;20030;-72
2023/01/31 02:52:17;;;;;;;42.83;22.33;;;;;;;;;;4992550;28;20034;-72
2023/01/31 02:57:54;;;;;;;56.70;26.13;;;;;;;;;;4992779;28;20043;-72
2023/01/31 03:00:22;;;;;;;46.53;22.85;;;;;;;;;;4992371;28;20113;-71
2023/01/31 03:02:48;;;;;;;42.70;20.92;;;;;;;;;;4992806;28;20065;-70
2023/01/31 03:05:16;;;;;;;44.58;21.88;;;;;;;;;;4993625;28;20026;-72
2023/01/31 03:07:47;;;;;;;37.35;19.63;;;;;;;;;;4993589;28;20233;-72
2023/01/31 03:10:22;;;;;;;34.60;17.42;;;;;;;;;;4992445;28;20038;-72
2023/01/31 03:13:09;;;;;;;34.85;17.58;;;;;;;;;;4992877;28;20042;-72
2023/01/31 03:19:15;;;;;;;32.10;17.65;;;;;;;;;;4992586;28;20511;-71
2023/01/31 03:21:48;;;;;;;37.00;17.98;;;;;;;;;;5025827;28;20042;-71
2023/01/31 03:24:16;;;;;;;38.42;18.52;;;;;;;;;;4992423;28;20093;-72
2023/01/31 03:26:42;;;;;;;48.38;21.63;;;;;;;;;;4994545;28;20476;-73
2023/01/31 03:29:12;;;;;;;36.95;18.63;;;;;;;;;;4992989;28;20436;-71
2023/01/31 03:31:51;;;;;;;39.10;17.90;;;;;;;;;;4992750;28;20034;-71
2023/01/31 03:34:17;;;;;;;31.65;16.48;;;;;;;;;;4991941;28;20038;-71
2023/01/31 03:37:36;;;;;;;35.35;18.88;;;;;;;;;;4992017;28;20080;-72
2023/01/31 03:40:17;;;;;;;36.42;18.08;;;;;;;;;;4956682;28;20525;-74
2023/01/31 03:42:56;;;;;;;40.35;20.90;;;;;;;;;;4992621;28;20035;-71
2023/01/31 03:45:37;;;;;;;39.67;18.73;;;;;;;;;;4992979;28;20034;-72
2023/01/31 03:48:08;;;;;;;37.13;19.77;;;;;;;;;;4992503;28;20373;-72
2023/01/31 03:50:40;;;;;;;31.90;16.85;;;;;;;;;;4992874;28;20041;-73
2023/01/31 03:53:12;;;;;;;38.80;18.25;;;;;;;;;;4991981;28;20034;-72
2023/01/31 03:55:47;;;;;;;30.60;16.40;;;;;;;;;;4992483;28;20088;-72
2023/01/31 03:58:16;;;;;;;30.42;15.23;;;;;;;;;;4992298;28;20042;-72
2023/01/31 04:00:45;;;;;;;30.13;15.88;;;;;;;;;;4992204;28;20109;-72
2023/01/31 04:03:37;;;;;;;31.23;15.25;;;;;;;;;;4991677;28;20439;-72
2023/01/31 04:06:04;;;;;;;30.55;16.83;;;;;;;;;;4992123;28;20030;-72
2023/01/31 04:08:32;;;;;;;33.10;17.05;;;;;;;;;;4991997;28;20030;-72
2023/01/31 04:11:04;;;;;;;30.45;15.65;;;;;;;;;;4992001;28;20030;-71
2023/01/31 04:13:29;;;;;;;38.60;18.55;;;;;;;;;;4993147;28;20026;-72
2023/01/31 04:15:55;;;;;;;31.38;14.90;;;;;;;;;;4992639;28;20495;-71
2023/01/31 04:18:21;;;;;;;32.20;16.40;;;;;;;;;;4993857;28;20042;-71
2023/01/31 04:20:47;;;;;;;31.25;14.20;;;;;;;;;;4993348;28;20018;-71
2023/01/31 04:23:12;;;;;;;27.88;15.88;;;;;;;;;;4992774;28;20462;-72
2023/01/31 04:25:38;;;;;;;31.30;14.90;;;;;;;;;;4993509;28;20030;-71
2023/01/31 04:28:04;;;;;;;31.42;14.77;;;;;;;;;;4992742;28;20065;-71
2023/01/31 04:30:29;;;;;;;29.55;14.15;;;;;;;;;;4993217;28;20098;-72
2023/01/31 04:32:55;;;;;;;25.33;13.63;;;;;;;;;;4992359;28;20038;-71
2023/01/31 04:35:21;;;;;;;29.92;15.13;;;;;;;;;;4992858;28;20210;-73
2023/01/31 04:37:46;;;;;;;31.63;14.95;;;;;;;;;;4993070;28;20033;-72
2023/01/31 04:40:15;;;;;;;27.20;14.85;;;;;;;;;;4992998;28;20511;-71
2023/01/31 04:42:41;;;;;;;30.80;15.45;;;;;;;;;;4992528;28;20046;-71
2023/01/31 04:45:07;;;;;;;33.78;17.10;;;;;;;;;;4991861;28;20029;-72
2023/01/31 04:47:33;;;;;;;34.90;16.48;;;;;;;;;;4991208;28;20046;-72
2023/01/31 04:49:59;;;;;;;33.85;17.48;;;;;;;;;;4992027;28;20026;-72
2023/01/31 04:52:25;;;;;;;35.20;17.00;;;;;;;;;;4991285;28;20034;-72
2023/01/31 04:54:50;;;;;;;33.72;16.38;;;;;;;;;;4991976;28;20026;-72
2023/01/31 04:57:16;;;;;;;37.47;16.23;;;;;;;;;;4992476;28;20117;-72
2023/01/31 04:59:42;;;;;;;40.75;16.30;;;;;;;;;;4992251;28;20030;-72
2023/01/31 05:02:07;;;;;;;30.10;15.10;;;;;;;;;;4989539;28;20093;-72
2023/01/31 05:04:33;;;;;;;32.03;15.52;;;;;;;;;;4992117;28;20029;-72
2023/01/31 05:06:59;;;;;;;35.67;17.50;;;;;;;;;;4991002;28;20377;-72
2023/01/31 05:09:25;;;;;;;39.40;20.20;;;;;;;;;;4992382;28;20089;-72
2023/01/31 05:11:51;;;;;;;34.35;16.73;;;;;;;;;;4991961;28;20072;-72
2023/01/31 05:14:17;;;;;;;35.97;18.27;;;;;;;;;;4991926;28;20022;-72
2023/01/31 05:16:46;;;;;;;35.17;17.80;;;;;;;;;;4990599;28;20030;-71
2023/01/31 05:19:13;;;;;;;35.13;17.75;;;;;;;;;;4990956;28;20030;-71
2023/01/31 05:21:54;;;;;;;32.00;16.30;;;;;;;;;;4991037;28;20631;-72
2023/01/31 05:24:21;;;;;;;36.15;16.42;;;;;;;;;;4992673;28;20042;-72
2023/01/31 05:26:49;;;;;;;34.22;16.98;;;;;;;;;;4991755;28;20053;-72
2023/01/31 05:29:15;;;;;;;33.47;16.58;;;;;;;;;;4989922;28;20030;-72
2023/01/31 05:31:41;;;;;;;33.60;15.60;;;;;;;;;;4991544;28;20026;-72
2023/01/31 05:34:09;;;;;;;32.05;16.48;;;;;;;;;;4990250;28;20045;-77
2023/01/31 05:36:35;;;;;;;29.75;15.73;;;;;;;;;;4988576;28;20026;-75
2023/01/31 05:44:31;;;;;;;32.72;16.65;;;;;;;;;;4970493;28;20530;-80
2023/01/31 05:46:59;;;;;;;38.47;17.20;;;;;;;;;;4972584;28;20039;-79
2023/01/31 05:49:26;;;;;;;34.65;17.25;;;;;;;;;;4953231;28;20023;-79
2023/01/31 05:59:35;;;;;;;35.28;16.20;;;;;;;;;;4980246;28;20049;-79
2023/01/31 06:02:01;;;;;;;33.35;16.90;;;;;;;;;;4977009;28;20030;-79
2023/01/31 06:04:27;;;;;;;41.83;19.27;;;;;;;;;;4971936;28;20054;-81
2023/01/31 06:06:54;;;;;;;44.08;21.08;;;;;;;;;;4975029;28;20503;-79
2023/01/31 06:09:20;;;;;;;43.50;23.23;;;;;;;;;;4973944;28;20098;-79
2023/01/31 06:11:46;;;;;;;56.90;24.88;;;;;;;;;;4979095;28;20037;-80
2023/01/31 06:14:12;;;;;;;45.88;23.73;;;;;;;;;;4972441;28;20408;-80
2023/01/31 06:16:38;;;;;;;37.17;20.05;;;;;;;;;;4985910;28;20400;-80
2023/01/31 06:19:03;;;;;;;38.50;19.60;;;;;;;;;;4980926;28;20495;-78
2023/01/31 06:21:29;;;;;;;49.42;23.55;;;;;;;;;;4972698;28;20042;-79
2023/01/31 06:23:55;;;;;;;43.75;21.02;;;;;;;;;;4971933;28;20058;-79
2023/01/31 06:26:22;;;;;;;52.35;20.58;;;;;;;;;;4971269;28;20062;-79
2023/01/31 06:28:48;;;;;;;113.53;43.20;;;;;;;;;;4973408;28;20030;-78
2023/01/31 06:31:15;;;;;;;79.45;35.88;;;;;;;;;;4957009;28;20525;-79
2023/01/31 06:33:41;;;;;;;67.97;27.85;;;;;;;;;;4972531;28;20162;-80
2023/01/31 06:36:08;;;;;;;62.38;26.38;;;;;;;;;;4974667;28;20026;-79
2023/01/31 06:38:34;;;;;;;65.72;28.10;;;;;;;;;;4983339;28;20029;-79
2023/01/31 06:41:04;;;;;;;69.28;28.98;;;;;;;;;;4982286;28;20496;-78
2023/01/31 06:43:30;;;;;;;58.92;27.85;;;;;;;;;;4975830;28;20023;-80
2023/01/31 06:45:56;;;;;;;63.90;28.45;;;;;;;;;;4974054;28;20109;-80
2023/01/31 06:48:22;;;;;;;54.53;25.67;;;;;;;;;;4974579;28;20382;-80
2023/01/31 06:50:50;;;;;;;64.68;27.38;;;;;;;;;;4981642;28;20035;-80
2023/01/31 06:53:16;;;;;;;55.05;25.17;;;;;;;;;;4965508;28;20018;-80
2023/01/31 06:55:41;;;;;;;52.88;24.98;;;;;;;;;;4960958;28;20499;-80
2023/01/31 06:58:07;;;;;;;54.30;26.05;;;;;;;;;;4985133;28;20101;-80
2023/01/31 07:00:33;;;;;;;68.35;29.10;;;;;;;;;;4982392;28;20034;-80
2023/01/31 07:03:00;;;;;;;75.63;30.10;;;;;;;;;;4979157;28;20432;-80
2023/01/31 07:05:27;;;;;;;54.08;24.88;;;;;;;;;;4976441;28;20076;-79
2023/01/31 07:07:54;;;;;;;53.42;26.27;;;;;;;;;;4974422;28;20180;-79
2023/01/31 07:10:21;;;;;;;59.20;26.63;;;;;;;;;;4981196;28;20034;-80
2023/01/31 07:12:46;;;;;;;52.33;25.85;;;;;;;;;;4972848;28;20083;-80
2023/01/31 07:15:12;;;;;;;51.25;24.30;;;;;;;;;;4964972;28;20027;-79
2023/01/31 07:17:40;;;;;;;47.47;22.40;;;;;;;;;;4982235;28;20027;-79
2023/01/31 07:20:06;;;;;;;49.15;23.17;;;;;;;;;;4981446;28;20038;-79
2023/01/31 07:22:32;;;;;;;44.72;22.52;;;;;;;;;;4956500;28;20027;-79
2023/01/31 07:24:58;;;;;;;41.47;20.40;;;;;;;;;;4980496;28;20030;-79
2023/01/31 07:27:23;;;;;;;39.10;20.27;;;;;;;;;;4976283;28;20503;-79
2023/01/31 07:29:49;;;;;;;50.17;24.45;;;;;;;;;;4978794;28;20034;-80
2023/01/31 07:32:15;;;;;;;67.88;26.27;;;;;;;;;;4970819;28;20038;-79
2023/01/31 07:34:42;;;;;;;51.67;24.25;;;;;;;;;;4973276;28;20038;-80
2023/01/31 07:37:09;;;;;;;42.20;22.30;;;;;;;;;;4980908;28;20105;-79
2023/01/31 07:39:35;;;;;;;45.38;23.20;;;;;;;;;;4980779;28;20037;-79
2023/01/31 07:42:00;;;;;;;46.45;22.08;;;;;;;;;;4982499;28;20022;-80
2023/01/31 07:44:26;;;;;;;55.17;24.55;;;;;;;;;;4981284;28;20110;-79
2023/01/31 07:46:55;;;;;;;49.05;24.05;;;;;;;;;;4974016;28;20035;-79
2023/01/31 07:49:21;;;;;;;40.70;21.83;;;;;;;;;;4974086;28;20038;-79
2023/01/31 07:51:47;;;;;;;54.30;25.60;;;;;;;;;;4974322;28;20352;-79
2023/01/31 07:54:13;;;;;;;46.92;22.27;;;;;;;;;;4973462;28;20082;-79
2023/01/31 07:56:38;;;;;;;54.83;25.75;;;;;;;;;;4974008;28;20208;-80
2023/01/31 07:59:05;;;;;;;49.17;25.05;;;;;;;;;;4974868;28;20034;-79
2023/01/31 08:04:18;;;;;;;39.55;21.23;;;;;;;;;;4973734;28;20121;-79
2023/01/31 08:06:45;;;;;;;47.45;21.48;;;;;;;;;;4973663;28;20035;-79
2023/01/31 08:09:12;;;;;;;46.42;19.58;;;;;;;;;;4973907;28;20039;-79
2023/01/31 08:11:38;;;;;;;40.33;20.30;;;;;;;;;;4973881;28;20033;-79
2023/01/31 08:14:04;;;;;;;34.78;18.05;;;;;;;;;;4973868;28;20027;-79
2023/01/31 08:16:30;;;;;;;42.33;19.95;;;;;;;;;;4971481;28;20461;-78
2023/01/31 08:18:56;;;;;;;35.10;19.88;;;;;;;;;;4973345;28;20112;-78
2023/01/31 08:21:23;;;;;;;38.45;19.27;;;;;;;;;;4988381;28;20105;-78
2023/01/31 08:23:51;;;;;;;37.85;19.10;;;;;;;;;;4973767;28;20047;-78
2023/01/31 08:26:18;;;;;;;34.97;18.90;;;;;;;;;;4972378;28;20031;-78
2023/01/31 08:28:46;;;;;;;35.60;18.25;;;;;;;;;;4972900;28;20030;-78
2023/01/31 08:31:14;;;;;;;33.28;18.42;;;;;;;;;;4971613;28;20023;-78
2023/01/31 08:33:40;;;;;;;35.45;19.83;;;;;;;;;;4973179;28;20105;-78
2023/01/31 08:36:15;;;;;;;32.20;18.00;;;;;;;;;;4972737;28;20126;-79
2023/01/31 08:38:41;;;;;;;33.55;18.05;;;;;;;;;;4973362;28;20207;-79
2023/01/31 08:41:13;;;;;;;36.42;18.35;;;;;;;;;;4973223;28;20034;-78
2023/01/31 08:43:39;;;;;;;34.88;18.15;;;;;;;;;;4971949;28;20381;-79
2023/01/31 08:46:05;;;;;;;37.97;17.90;;;;;;;;;;4971882;28;20037;-79
2023/01/31 08:48:33;;;;;;;35.40;18.38;;;;;;;;;;4972707;28;20097;-78
2023/01/31 08:51:04;;;;;;;36.20;17.95;;;;;;;;;;4972247;28;20556;-79
2023/01/31 08:53:30;;;;;;;37.75;17.58;;;;;;;;;;4971851;28;20061;-78
2023/01/31 08:56:04;;;;;;;30.73;16.83;;;;;;;;;;4987235;28;20499;-79
2023/01/31 08:58:31;;;;;;;46.78;22.25;;;;;;;;;;4987549;28;20049;-78
2023/01/31 09:01:01;;;;;;;51.47;24.13;;;;;;;;;;4987628;28;20027;-78
2023/01/31 09:03:27;;;;;;;44.67;22.25;;;;;;;;;;4973088;28;20440;-79
2023/01/31 09:05:53;;;;;;;35.00;19.92;;;;;;;;;;4972787;28;20041;-79
2023/01/31 09:08:19;;;;;;;48.42;21.00;;;;;;;;;;4971340;28;20042;-78
2023/01/31 09:10:54;;;;;;;29.20;16.88;;;;;;;;;;4960008;28;20124;-79
2023/01/31 09:13:20;;;;;;;37.10;18.08;;;;;;;;;;4952105;29;20063;-78
2023/01/31 09:15:46;;;;;;;31.00;16.45;;;;;;;;;;4951889;28;20034;-78
2023/01/31 09:18:12;;;;;;;30.42;15.80;;;;;;;;;;4972862;28;20381;-78
2023/01/31 09:20:38;;;;;;;30.17;16.10;;;;;;;;;;4970971;28;20026;-78
2023/01/31 09:23:05;;;;;;;30.17;16.70;;;;;;;;;;4972464;28;20046;-78
2023/01/31 09:25:32;;;;;;;29.02;16.25;;;;;;;;;;4963321;28;20035;-78
2023/01/31 09:28:00;;;;;;;27.77;16.02;;;;;;;;;;4972659;28;20034;-79
2023/01/31 09:30:26;;;;;;;28.70;14.75;;;;;;;;;;4972606;28;20038;-79
2023/01/31 09:32:51;;;;;;;26.23;14.57;;;;;;;;;;4970580;28;20035;-80
2023/01/31 09:35:18;;;;;;;23.55;13.10;;;;;;;;;;4969647;28;20027;-78
2023/01/31 09:37:43;;;;;;;28.08;14.02;;;;;;;;;;4936035;29;20043;-79
2023/01/31 09:40:21;;;;;;;28.33;14.07;;;;;;;;;;4953426;28;20473;-79
2023/01/31 09:42:50;;;;;;;24.08;12.77;;;;;;;;;;4951954;29;20044;-79
2023/01/31 09:45:31;;;;;;;23.73;12.95;;;;;;;;;;4952964;28;20114;-78
2023/01/31 09:48:00;;;;;;;23.35;13.15;;;;;;;;;;4967701;28;20172;-77
2023/01/31 09:50:35;;;;;;;25.75;12.55;;;;;;;;;;4972380;28;20026;-78
2023/01/31 09:53:01;;;;;;;26.10;13.52;;;;;;;;;;4981906;28;20028;-78
2023/01/31 09:56:01;;;;;;;26.45;13.20;;;;;;;;;;4953231;28;20023;-78
2023/01/31 09:58:34;;;;;;;36.22;13.70;;;;;;;;;;4952726;28;20039;-78
2023/01/31 10:01:24;;;;;;;25.42;12.85;;;;;;;;;;4951302;28;20035;-78
2023/01/31 10:04:16;;;;;;;30.83;15.60;;;;;;;;;;4951807;29;20114;-77
2023/01/31 10:06:50;;;;;;;30.98;14.68;;;;;;;;;;4951368;28;20074;-78
2023/01/31 10:09:45;;;;;;;28.88;13.77;;;;;;;;;;4956057;28;20046;-78
2023/01/31 10:12:18;;;;;;;33.83;15.18;;;;;;;;;;4970345;28;20528;-79
2023/01/31 10:14:54;;;;;;;24.35;13.23;;;;;;;;;;4976389;28;20034;-79
2023/01/31 10:17:30;;;;;;;29.52;13.50;;;;;;;;;;4975912;28;20049;-79
2023/01/31 10:20:20;;;;;;;28.17;14.40;;;;;;;;;;4974075;28;20050;-79
2023/01/31 10:23:03;;;;;;;26.63;13.73;;;;;;;;;;4974021;28;20122;-79
2023/01/31 10:25:49;;;;;;;20.67;10.55;;;;;;;;;;4975318;28;20035;-78
2023/01/31 10:28:23;;;;;;;21.73;11.77;;;;;;;;;;4975239;28;20118;-79
2023/01/31 10:31:11;;;;;;;16.08;10.10;;;;;;;;;;4990347;28;20034;-79
2023/01/31 10:33:50;;;;;;;22.80;10.80;;;;;;;;;;4974280;28;20041;-78
2023/01/31 10:36:28;;;;;;;18.48;9.38;;;;;;;;;;4975247;28;20138;-78
2023/01/31 10:39:15;;;;;;;15.35;8.55;;;;;;;;;;4973876;28;20062;-79
2023/01/31 10:42:06;;;;;;;14.88;9.32;;;;;;;;;;4975523;28;20043;-80
2023/01/31 10:44:55;;;;;;;16.38;8.38;;;;;;;;;;4974211;28;20141;-80
2023/01/31 10:47:31;;;;;;;15.88;8.18;;;;;;;;;;4973392;28;20162;-80
2023/01/31 10:49:57;;;;;;;17.63;7.70;;;;;;;;;;4974755;28;20049;-80
2023/01/31 10:52:46;;;;;;;14.35;7.60;;;;;;;;;;4974771;28;20030;-80
2023/01/31 10:55:13;;;;;;;15.20;7.78;;;;;;;;;;4974916;28;20477;-80
2023/01/31 10:57:39;;;;;;;19.17;8.98;;;;;;;;;;4975297;28;20081;-80
2023/01/31 11:00:06;;;;;;;16.90;8.63;;;;;;;;;;4975146;28;20046;-81
2023/01/31 11:02:32;;;;;;;22.23;10.85;;;;;;;;;;4973055;28;20093;-80
2023/01/31 11:04:59;;;;;;;17.60;9.07;;;;;;;;;;4974765;28;20061;-80
2023/01/31 11:07:30;;;;;;;16.48;8.00;;;;;;;;;;4959501;28;20022;-79
2023/01/31 11:09:58;;;;;;;14.77;7.78;;;;;;;;;;4994271;28;20083;-79
2023/01/31 11:13:00;;;;;;;15.35;8.00;;;;;;;;;;4986686;28;20018;-79
2023/01/31 11:15:37;;;;;;;14.07;7.70;;;;;;;;;;4984632;28;20050;-79
2023/01/31 11:18:04;;;;;;;22.45;11.52;;;;;;;;;;4994106;28;20036;-80
2023/01/31 11:20:35;;;;;;;21.58;11.43;;;;;;;;;;4986401;28;20043;-79
2023/01/31 11:23:05;;;;;;;15.35;7.70;;;;;;;;;;4992774;28;20030;-80
2023/01/31 11:25:33;;;;;;;12.75;7.03;;;;;;;;;;4991957;28;20030;-80
2023/01/31 11:28:02;;;;;;;22.90;10.00;;;;;;;;;;4988278;28;20189;-80
2023/01/31 11:30:31;;;;;;;17.27;9.57;;;;;;;;;;4994632;28;20057;-81
2023/01/31 11:32:57;;;;;;;19.15;10.05;;;;;;;;;;4994667;28;20042;-81
2023/01/31 11:35:27;;;;;;;18.65;9.23;;;;;;;;;;4994229;28;20034;-79
2023/01/31 11:38:21;;;;;;;14.95;6.88;;;;;;;;;;4995140;28;20080;-79
2023/01/31 11:40:47;;;;;;;14.68;6.55;;;;;;;;;;4994736;28;20495;-80
2023/01/31 11:43:13;;;;;;;16.10;6.85;;;;;;;;;;4994104;28;20034;-80
2023/01/31 11:45:46;;;;;;;14.98;7.05;;;;;;;;;;4990413;28;20066;-79
2023/01/31 11:48:13;;;;;;;14.27;7.75;;;;;;;;;;4986239;28;20069;-80
2023/01/31 11:50:45;;;;;;;11.77;6.22;;;;;;;;;;4993454;28;20089;-80
2023/01/31 11:53:19;;;;;;;14.90;6.77;;;;;;;;;;4982836;28;20043;-80
2023/01/31 11:55:47;;;;;;;11.13;6.45;;;;;;;;;;4982410;28;20276;-80
2023/01/31 11:58:19;;;;;;;11.30;6.68;;;;;;;;;;4973007;28;20054;-80
2023/01/31 12:01:21;;;;;;;16.73;7.57;;;;;;;;;;4974096;28;20445;-79
2023/01/31 12:03:50;;;;;;;11.68;6.55;;;;;;;;;;4973865;28;20089;-80
2023/01/31 12:06:35;;;;;;;15.25;6.45;;;;;;;;;;4977395;28;20106;-80
2023/01/31 12:09:17;;;;;;;14.23;6.65;;;;;;;;;;4992683;28;20075;-80
2023/01/31 12:11:50;;;;;;;10.98;6.13;;;;;;;;;;4990500;28;20042;-79
2023/01/31 12:14:18;;;;;;;13.80;6.35;;;;;;;;;;4990797;28;20499;-80
2023/01/31 12:16:46;;;;;;;12.88;6.53;;;;;;;;;;4994766;28;20026;-80
2023/01/31 12:19:31;;;;;;;12.35;6.47;;;;;;;;;;4986518;28;20047;-78
2023/01/31 12:22:04;;;;;;;13.13;6.03;;;;;;;;;;4956294;28;20043;-81
2023/01/31 12:24:48;;;;;;;15.07;6.70;;;;;;;;;;4989525;28;20042;-80
2023/01/31 12:27:44;;;;;;;11.32;5.80;;;;;;;;;;4984847;28;20046;-80
2023/01/31 12:30:37;;;;;;;6.72;4.07;;;;;;;;;;4979070;28;20035;-80
2023/01/31 12:36:04;;;;;;;16.45;5.32;;;;;;;;;;4962819;28;20051;-72
2023/01/31 12:38:52;;;;;;;15.75;6.60;;;;;;;;;;4962124;28;20027;-72
2023/01/31 12:41:41;;;;;;;10.30;3.40;;;;;;;;;;4965512;28;20035;-72
2023/01/31 12:44:27;;;;;;;14.80;4.50;;;;;;;;;;4968063;28;20083;-71
2023/01/31 12:47:29;;;;;;;8.02;3.88;;;;;;;;;;4964043;28;20035;-72
2023/01/31 12:50:16;;;;;;;6.85;3.13;;;;;;;;;;4961778;28;20038;-71
2023/01/31 12:53:06;;;;;;;10.13;3.97;;;;;;;;;;4969636;28;20600;-72
2023/01/31 12:56:11;;;;;;;9.75;4.32;;;;;;;;;;4970238;28;20449;-71
2023/01/31 12:58:54;;;;;;;9.90;4.25;;;;;;;;;;4961981;28;20050;-70
2023/01/31 13:01:45;;;;;;;8.37;4.77;;;;;;;;;;4973098;28;20033;-72
2023/01/31 13:04:36;;;;;;;14.93;6.05;;;;;;;;;;4965600;28;20081;-71
2023/01/31 13:07:15;;;;;;;20.85;5.95;;;;;;;;;;4952875;28;20047;-71
2023/01/31 13:09:45;;;;;;;24.83;5.38;;;;;;;;;;4951818;29;20193;-71
2023/01/31 13:12:24;;;;;;;13.10;4.15;;;;;;;;;;4952350;29;20039;-71
2023/01/31 13:15:13;;;;;;;14.70;4.65;;;;;;;;;;4952818;28;20047;-72
2023/01/31 13:17:40;;;;;;;5.72;3.30;;;;;;;;;;4952933;28;20122;-71
2023/01/31 13:20:36;;;;;;;7.93;4.30;;;;;;;;;;4952226;29;20392;-71
2023/01/31 13:23:11;;;;;;;6.88;3.38;;;;;;;;;;4951755;28;20556;-71
2023/01/31 13:25:41;;;;;;;7.70;4.95;;;;;;;;;;4952799;28;20035;-71
2023/01/31 13:28:18;;;;;;;14.27;7.45;;;;;;;;;;4954163;28;20035;-71
2023/01/31 13:30:53;;;;;;;16.30;7.97;;;;;;;;;;4953688;28;20115;-72
2023/01/31 13:33:26;;;;;;;12.35;6.57;;;;;;;;;;4964766;28;20051;-73
2023/01/31 13:36:10;;;;;;;14.60;7.35;;;;;;;;;;4965146;28;20038;-72
2023/01/31 13:38:43;;;;;;;15.10;6.72;;;;;;;;;;4972671;28;20031;-73
2023/01/31 13:41:30;;;;;;;11.55;5.97;;;;;;;;;;4963558;28;20034;-72
2023/01/31 13:43:57;;;;;;;10.43;5.93;;;;;;;;;;4972801;28;20046;-72
2023/01/31 13:46:44;;;;;;;13.70;5.63;;;;;;;;;;4972795;28;20186;-70
2023/01/31 13:49:25;;;;;;;10.80;6.20;;;;;;;;;;4964086;28;20038;-72
2023/01/31 13:51:58;;;;;;;11.60;6.03;;;;;;;;;;4970655;28;20142;-72
2023/01/31 13:54:59;;;;;;;14.55;6.15;;;;;;;;;;4971132;28;20045;-73
2023/01/31 13:57:31;;;;;;;9.20;4.82;;;;;;;;;;4940110;28;20141;-73
2023/01/31 14:00:25;;;;;;;9.35;5.10;;;;;;;;;;4972408;28;20046;-72
2023/01/31 14:03:13;;;;;;;12.73;5.78;;;;;;;;;;4970378;28;20062;-72
2023/01/31 14:05:43;;;;;;;11.88;6.10;;;;;;;;;;4972441;28;20185;-72
2023/01/31 14:08:35;;;;;;;7.63;4.35;;;;;;;;;;4971264;28;20109;-74
2023/01/31 14:11:12;;;;;;;12.55;5.13;;;;;;;;;;4972212;28;20050;-73
2023/01/31 14:13:41;;;;;;;13.05;5.38;;;;;;;;;;4960387;28;20141;-71
2023/01/31 14:16:35;;;;;;;13.00;6.10;;;;;;;;;;4960287;28;20110;-72
2023/01/31 14:19:03;;;;;;;9.35;5.18;;;;;;;;;;4963948;28;20062;-71
2023/01/31 14:21:28;;;;;;;9.57;6.10;;;;;;;;;;4968206;28;20029;-72
2023/01/31 14:24:00;;;;;;;10.40;5.28;;;;;;;;;;4967857;28;20046;-72
2023/01/31 14:26:41;;;;;;;12.30;6.40;;;;;;;;;;4970307;28;20483;-72
2023/01/31 14:29:09;;;;;;;11.70;5.25;;;;;;;;;;4968436;28;20038;-72
2023/01/31 14:31:35;;;;;;;16.30;5.93;;;;;;;;;;4969567;28;20022;-72
2023/01/31 14:34:02;;;;;;;12.18;6.60;;;;;;;;;;4970923;28;20034;-72
2023/01/31 14:37:07;;;;;;;10.85;6.60;;;;;;;;;;4971311;28;20054;-71
2023/01/31 14:40:14;;;;;;;10.30;6.25;;;;;;;;;;4969618;28;20042;-71
2023/01/31 14:43:20;;;;;;;8.70;5.57;;;;;;;;;;4964866;28;20030;-72
2023/01/31 14:45:52;;;;;;;9.65;5.60;;;;;;;;;;4969915;28;20043;-72
2023/01/31 14:48:30;;;;;;;9.90;6.53;;;;;;;;;;4966204;28;20042;-72
2023/01/31 14:51:33;;;;;;;11.23;6.00;;;;;;;;;;4969758;28;20031;-71
2023/01/31 14:54:12;;;;;;;13.45;5.82;;;;;;;;;;4960883;28;20397;-73
2023/01/31 14:57:15;;;;;;;11.10;6.78;;;;;;;;;;4963432;28;20042;-70
2023/01/31 14:59:53;;;;;;;17.35;8.70;;;;;;;;;;4960030;28;20416;-71
2023/01/31 15:02:43;;;;;;;10.52;5.70;;;;;;;;;;4968187;28;20031;-72
2023/01/31 15:05:16;;;;;;;6.93;4.28;;;;;;;;;;4969046;28;20499;-74
2023/01/31 15:08:05;;;;;;;10.40;5.80;;;;;;;;;;4962118;28;20047;-73
2023/01/31 15:11:02;;;;;;;13.90;6.40;;;;;;;;;;4969197;28;20049;-71
2023/01/31 15:13:50;;;;;;;11.93;6.70;;;;;;;;;;4970160;28;20101;-69
2023/01/31 15:16:24;;;;;;;16.70;6.53;;;;;;;;;;4963828;28;20046;-70
2023/01/31 15:19:11;;;;;;;12.50;7.13;;;;;;;;;;4968685;28;20093;-70
2023/01/31 15:22:04;;;;;;;20.98;7.75;;;;;;;;;;4962907;28;20624;-71